createdAt,value
2023-03-18T00:01:31.396Z,12.43
2023-03-18T00:03:58.515Z,12.31
2023-03-18T00:06:26.214Z,12.35
2023-03-18T00:08:53.310Z,12.35
2023-03-18T00:11:21.516Z,12.37
2023-03-18T00:13:49.172Z,12.32
2023-03-18T00:16:16.780Z,12.34
2023-03-18T00:18:44.591Z,12.32
2023-03-18T00:21:12.231Z,12.21
2023-03-18T00:23:39.846Z,12.22
2023-03-18T00:26:08.917Z,12.11
2023-03-18T00:28:37.436Z,12.01
2023-03-18T00:31:08.990Z,11.92
2023-03-18T00:33:38.187Z,11.91
2023-03-18T00:36:06.515Z,11.86
2023-03-18T00:38:35.576Z,11.80
2023-03-18T00:41:11.589Z,11.69
2023-03-18T00:43:52.192Z,11.62
2023-03-18T00:46:26.082Z,11.58
2023-03-18T00:48:55.690Z,11.53
2023-03-18T00:51:25.132Z,11.52
2023-03-18T00:53:55.344Z,11.50
2023-03-18T00:56:25.494Z,11.51
2023-03-18T00:58:54.152Z,11.55
2023-03-18T01:01:22.151Z,11.52
2023-03-18T01:03:50.173Z,11.49
2023-03-18T01:06:22.637Z,11.52
2023-03-18T01:08:50.663Z,11.52
2023-03-18T01:11:18.488Z,11.51
2023-03-18T01:13:46.194Z,11.51
2023-03-18T01:16:14.258Z,11.50
2023-03-18T01:18:42.324Z,11.47
2023-03-18T01:21:10.248Z,11.46
2023-03-18T01:23:38.215Z,11.50
2023-03-18T01:26:06.307Z,11.39
2023-03-18T01:28:33.627Z,11.46
2023-03-18T01:31:04.607Z,11.38
2023-03-18T01:33:31.787Z,11.44
2023-03-18T01:36:02.337Z,11.47
2023-03-18T01:38:32.575Z,11.46
2023-03-18T01:41:01.204Z,11.48
2023-03-18T01:43:36.806Z,11.46
2023-03-18T01:46:29.672Z,11.54
2023-03-18T01:48:57.343Z,11.42
2023-03-18T01:51:26.794Z,11.47
2023-03-18T01:53:57.544Z,11.47
2023-03-18T01:56:25.012Z,11.46
2023-03-18T01:58:55.358Z,11.50
2023-03-18T02:01:27.785Z,11.48
2023-03-18T02:03:55.543Z,11.47
2023-03-18T02:06:23.854Z,11.45
2023-03-18T02:08:51.003Z,11.48
2023-03-18T02:11:18.024Z,11.49
2023-03-18T02:13:46.776Z,11.55
2023-03-18T02:16:57.317Z,11.68
2023-03-18T02:19:37.147Z,11.75
2023-03-18T02:22:16.175Z,11.74
2023-03-18T02:25:14.036Z,11.63
2023-03-18T02:27:47.195Z,11.41
2023-03-18T02:30:18.940Z,11.38
2023-03-18T02:32:48.625Z,11.38
2023-03-18T02:35:15.822Z,11.32
2023-03-18T02:37:43.124Z,11.35
2023-03-18T02:40:13.147Z,11.37
2023-03-18T02:42:40.151Z,11.36
2023-03-18T02:45:17.263Z,11.35
2023-03-18T02:47:45.632Z,11.29
2023-03-18T02:50:12.886Z,11.39
2023-03-18T02:52:40.075Z,11.37
2023-03-18T02:55:08.007Z,11.38
2023-03-18T02:57:35.045Z,11.36
2023-03-18T03:00:02.112Z,11.32
2023-03-18T03:02:29.833Z,11.31
2023-03-18T03:04:57.453Z,11.21
2023-03-18T03:07:27.826Z,11.19
2023-03-18T03:09:54.875Z,11.17
2023-03-18T03:12:22.034Z,11.22
2023-03-18T03:14:49.037Z,11.22
2023-03-18T03:17:16.527Z,11.20
2023-03-18T03:19:45.833Z,11.19
2023-03-18T03:22:12.985Z,11.20
2023-03-18T03:24:40.125Z,11.18
2023-03-18T03:27:07.625Z,11.21
2023-03-18T03:29:34.783Z,11.23
2023-03-18T03:32:02.128Z,11.19
2023-03-18T03:34:30.428Z,11.17
2023-03-18T03:36:57.435Z,11.14
2023-03-18T03:39:24.599Z,11.24
2023-03-18T03:41:52.821Z,11.22
2023-03-18T03:44:20.185Z,11.29
2023-03-18T03:46:48.574Z,11.25
2023-03-18T03:49:16.951Z,11.24
2023-03-18T03:51:44.006Z,11.28
2023-03-18T03:54:13.234Z,11.31
2023-03-18T03:56:41.002Z,11.27
2023-03-18T03:59:08.435Z,11.26
2023-03-18T04:01:35.764Z,11.30
2023-03-18T04:04:04.024Z,11.32
2023-03-18T04:06:31.697Z,11.33
2023-03-18T04:08:58.860Z,11.28
2023-03-18T04:11:25.987Z,11.28
2023-03-18T04:13:53.108Z,11.28
2023-03-18T04:16:20.268Z,11.28
2023-03-18T04:18:47.557Z,11.26
2023-03-18T04:21:14.971Z,11.30
2023-03-18T04:23:42.308Z,11.23
2023-03-18T04:26:09.381Z,11.23
2023-03-18T04:28:36.475Z,11.24
2023-03-18T04:31:03.549Z,11.23
2023-03-18T04:33:32.096Z,11.19
2023-03-18T04:35:59.378Z,11.10
2023-03-18T04:38:28.296Z,11.12
2023-03-18T04:40:55.380Z,11.14
2023-03-18T04:43:22.832Z,11.16
2023-03-18T04:45:50.200Z,11.18
2023-03-18T04:48:18.197Z,11.08
2023-03-18T04:50:46.056Z,11.17
2023-03-18T04:53:13.253Z,11.17
2023-03-18T04:55:40.722Z,11.29
2023-03-18T04:58:08.351Z,11.16
2023-03-18T05:00:35.621Z,11.16
2023-03-18T05:03:03.666Z,11.17
2023-03-18T05:05:31.352Z,11.13
2023-03-18T05:07:58.525Z,11.06
2023-03-18T05:10:25.585Z,11.04
2023-03-18T05:12:52.759Z,11.01
2023-03-18T05:15:20.193Z,10.84
2023-03-18T05:17:47.631Z,10.86
2023-03-18T05:20:14.837Z,10.87
2023-03-18T05:22:42.072Z,10.86
2023-03-18T05:25:11.526Z,10.82
2023-03-18T05:27:38.785Z,10.80
2023-03-18T05:30:06.553Z,10.76
2023-03-18T05:32:33.705Z,10.76
2023-03-18T05:35:00.937Z,10.69
2023-03-18T05:37:28.055Z,10.76
2023-03-18T05:39:55.239Z,10.84
2023-03-18T05:42:23.385Z,10.70
2023-03-18T05:44:50.716Z,10.77
2023-03-18T05:47:18.002Z,10.80
2023-03-18T05:49:45.098Z,10.84
2023-03-18T05:52:12.320Z,10.86
2023-03-18T05:54:39.612Z,10.83
2023-03-18T05:57:07.417Z,10.86
2023-03-18T05:59:34.838Z,10.86
2023-03-18T06:02:02.221Z,10.82
2023-03-18T06:04:30.420Z,10.85
2023-03-18T06:06:58.259Z,10.91
2023-03-18T06:09:25.892Z,10.92
2023-03-18T06:11:52.995Z,11.01
2023-03-18T06:14:20.193Z,11.10
2023-03-18T06:16:47.337Z,11.11
2023-03-18T06:19:14.514Z,11.16
2023-03-18T06:21:41.661Z,11.18
2023-03-18T06:24:09.644Z,11.18
2023-03-18T06:26:36.826Z,11.13
2023-03-18T06:29:05.289Z,11.16
2023-03-18T06:31:33.817Z,11.08
2023-03-18T06:34:01.580Z,11.05
2023-03-18T06:36:29.584Z,11.00
2023-03-18T06:38:56.751Z,11.04
2023-03-18T06:41:23.855Z,11.06
2023-03-18T06:43:52.302Z,11.02
2023-03-18T06:46:19.477Z,11.18
2023-03-18T06:48:46.695Z,11.20
2023-03-18T06:51:13.770Z,11.21
2023-03-18T06:53:41.995Z,11.27
2023-03-18T06:56:09.960Z,11.23
2023-03-18T06:58:37.734Z,11.26
2023-03-18T07:01:05.091Z,11.29
2023-03-18T07:03:32.923Z,11.28
2023-03-18T07:06:01.115Z,11.24
2023-03-18T07:08:30.092Z,11.29
2023-03-18T07:10:57.789Z,11.23
2023-03-18T07:13:25.257Z,11.28
2023-03-18T07:15:52.409Z,11.34
2023-03-18T07:18:19.641Z,11.46
2023-03-18T07:20:46.682Z,11.50
2023-03-18T07:23:14.036Z,11.47
2023-03-18T07:25:42.068Z,11.49
2023-03-18T07:28:09.240Z,11.54
2023-03-18T07:30:36.525Z,11.63
2023-03-18T07:33:04.596Z,11.57
2023-03-18T07:35:32.286Z,11.65
2023-03-18T07:38:00.981Z,11.49
2023-03-18T07:40:28.218Z,11.48
2023-03-18T07:42:55.710Z,11.56
2023-03-18T07:45:22.807Z,11.62
2023-03-18T07:47:50.151Z,11.82
2023-03-18T07:50:18.422Z,11.91
2023-03-18T07:52:45.501Z,11.99
2023-03-18T07:55:12.589Z,12.06
2023-03-18T07:57:40.735Z,12.16
2023-03-18T08:00:10.531Z,12.31
2023-03-18T08:02:37.924Z,12.42
2023-03-18T08:05:06.929Z,12.35
2023-03-18T08:07:35.586Z,12.44
2023-03-18T08:10:02.722Z,12.49
2023-03-18T08:12:45.310Z,12.55
2023-03-18T08:15:16.455Z,12.66
2023-03-18T08:17:43.612Z,12.66
2023-03-18T08:20:12.237Z,12.78
2023-03-18T08:22:39.271Z,12.74
2023-03-18T08:25:06.668Z,12.85
2023-03-18T08:27:33.924Z,12.96
2023-03-18T08:30:03.510Z,12.87
2023-03-18T08:32:30.983Z,12.89
2023-03-18T08:34:58.209Z,12.85
2023-03-18T08:37:25.937Z,12.89
2023-03-18T08:39:52.996Z,12.97
2023-03-18T08:42:20.864Z,13.03
2023-03-18T08:44:48.868Z,12.98
2023-03-18T08:47:16.003Z,13.03
2023-03-18T08:49:43.084Z,13.03
2023-03-18T08:52:10.562Z,13.03
2023-03-18T08:54:37.910Z,12.98
2023-03-18T08:57:05.141Z,13.11
2023-03-18T08:59:32.527Z,13.09
2023-03-18T09:02:00.451Z,13.19
2023-03-18T09:04:27.479Z,13.25
2023-03-18T09:06:54.709Z,13.43
2023-03-18T09:09:26.271Z,13.56
2023-03-18T09:11:58.281Z,13.58
2023-03-18T09:14:26.407Z,13.67
2023-03-18T09:16:54.750Z,13.75
2023-03-18T09:19:21.998Z,13.80
2023-03-18T09:21:49.209Z,13.84
2023-03-18T09:24:16.480Z,13.82
2023-03-18T09:26:43.736Z,13.86
2023-03-18T09:29:11.261Z,13.85
2023-03-18T09:31:38.652Z,13.86
2023-03-18T09:34:06.123Z,13.89
2023-03-18T09:36:33.809Z,13.87
2023-03-18T09:39:01.034Z,13.79
2023-03-18T09:41:44.150Z,13.61
2023-03-18T09:44:24.249Z,13.71
2023-03-18T09:47:29.360Z,13.61
2023-03-18T09:50:15.888Z,13.59
2023-03-18T09:52:49.318Z,13.66
2023-03-18T09:55:40.217Z,13.71
2023-03-18T09:58:23.412Z,13.89
2023-03-18T10:00:57.120Z,13.99
2023-03-18T10:03:30.590Z,14.07
2023-03-18T10:06:06.780Z,14.16
2023-03-18T10:09:01.183Z,14.27
2023-03-18T10:11:30.992Z,14.48
2023-03-18T10:14:08.993Z,14.61
2023-03-18T10:16:48.945Z,14.52
2023-03-18T10:19:16.149Z,14.45
2023-03-18T10:22:06.231Z,14.48
2023-03-18T10:24:35.923Z,14.60
2023-03-18T10:27:15.290Z,14.74
2023-03-18T10:29:46.991Z,14.80
2023-03-18T10:32:49.065Z,14.73
2023-03-18T10:35:31.786Z,14.49
2023-03-18T10:38:17.985Z,14.61
2023-03-18T10:40:47.503Z,14.61
2023-03-18T10:43:25.120Z,14.78
2023-03-18T10:46:11.843Z,15.01
2023-03-18T10:48:49.995Z,15.13
2023-03-18T10:51:34.502Z,15.31
2023-03-18T10:54:19.192Z,15.42
2023-03-18T10:56:46.622Z,15.37
2023-03-18T10:59:18.126Z,15.38
2023-03-18T11:01:51.396Z,15.43
2023-03-18T11:04:21.732Z,15.41
2023-03-18T11:07:14.923Z,15.51
2023-03-18T11:09:42.482Z,15.38
2023-03-18T11:12:18.942Z,15.58
2023-03-18T11:14:49.171Z,15.85
2023-03-18T11:17:33.162Z,15.88
2023-03-18T11:20:05.420Z,15.97
2023-03-18T11:22:33.155Z,16.00
2023-03-18T11:25:13.902Z,16.12
2023-03-18T11:27:45.704Z,16.14
2023-03-18T11:30:34.654Z,16.17
2023-03-18T11:33:11.741Z,16.20
2023-03-18T11:36:01.053Z,16.23
2023-03-18T11:38:31.749Z,16.11
2023-03-18T11:41:09.212Z,16.05
2023-03-18T11:43:38.043Z,16.19
2023-03-18T11:46:09.482Z,16.37
2023-03-18T11:48:39.741Z,16.40
2023-03-18T11:51:25.204Z,16.43
2023-03-18T11:54:09.540Z,16.32
2023-03-18T11:56:55.526Z,16.27
2023-03-18T11:59:34.966Z,16.37
2023-03-18T12:02:18.587Z,16.26
2023-03-18T12:05:16.770Z,16.28
2023-03-18T12:08:09.978Z,16.19
2023-03-18T12:10:47.058Z,16.07
2023-03-18T12:13:32.738Z,16.11
2023-03-18T12:16:43.598Z,16.22
2023-03-18T12:19:41.790Z,16.21
2023-03-18T12:22:47.616Z,16.26
2023-03-18T12:25:23.959Z,16.51
2023-03-18T12:28:09.070Z,16.67
2023-03-18T12:30:53.873Z,16.70
2023-03-18T12:33:31.615Z,16.77
2023-03-18T12:36:12.478Z,16.62
2023-03-18T12:39:02.457Z,16.55
2023-03-18T12:41:41.041Z,16.45
2023-03-18T12:44:46.595Z,16.52
2023-03-18T12:47:37.146Z,16.34
2023-03-18T12:50:21.070Z,16.27
2023-03-18T12:53:17.174Z,16.16
2023-03-18T12:55:48.181Z,16.00
2023-03-18T12:58:23.233Z,16.09
2023-03-18T13:01:06.865Z,15.91
2023-03-18T13:03:36.063Z,15.91
2023-03-18T13:06:10.107Z,15.94
2023-03-18T13:09:16.601Z,15.79
2023-03-18T13:11:50.818Z,15.75
2023-03-18T13:15:08.204Z,15.79
2023-03-18T13:17:41.676Z,15.70
2023-03-18T13:20:23.851Z,15.51
2023-03-18T13:23:05.777Z,15.57
2023-03-18T13:25:49.485Z,15.55
2023-03-18T13:28:36.827Z,15.54
2023-03-18T13:31:14.306Z,15.55
2023-03-18T13:34:00.509Z,15.52
2023-03-18T13:36:41.635Z,15.47
2023-03-18T13:39:33.571Z,15.34
2023-03-18T13:42:18.248Z,15.21
2023-03-18T13:44:55.438Z,15.26
2023-03-18T13:47:23.721Z,15.32
2023-03-18T13:50:01.106Z,15.62
2023-03-18T13:52:40.841Z,15.79
2023-03-18T13:55:33.067Z,15.85
2023-03-18T13:58:13.590Z,15.95
2023-03-18T14:00:46.253Z,16.00
2023-03-18T14:03:18.150Z,16.06
2023-03-18T14:05:47.258Z,16.10
2023-03-18T14:08:38.972Z,16.17
2023-03-18T14:11:23.135Z,16.31
2023-03-18T14:13:56.551Z,16.32
2023-03-18T14:16:51.329Z,16.28
2023-03-18T14:19:24.168Z,16.32
2023-03-18T14:21:53.510Z,16.22
2023-03-18T14:24:24.493Z,16.20
2023-03-18T14:27:03.646Z,16.07
2023-03-18T14:29:36.564Z,15.99
2023-03-18T14:32:08.467Z,16.04
2023-03-18T14:34:59.592Z,16.16
2023-03-18T14:37:30.619Z,16.15
2023-03-18T14:40:12.608Z,16.17
2023-03-18T14:42:53.799Z,16.25
2023-03-18T14:45:36.194Z,16.14
2023-03-18T14:48:12.092Z,16.16
2023-03-18T14:50:47.721Z,16.21
2023-03-18T14:53:30.612Z,16.27
2023-03-18T14:55:59.843Z,16.37
2023-03-18T14:58:28.592Z,16.38
2023-03-18T15:01:06.638Z,16.98
2023-03-18T15:03:34.465Z,18.20
2023-03-18T15:06:04.894Z,19.97
2023-03-18T15:08:47.321Z,21.00
2023-03-18T15:11:16.870Z,21.75
2023-03-18T15:13:44.860Z,22.69
2023-03-18T15:16:17.122Z,23.22
2023-03-18T15:18:44.500Z,22.98
2023-03-18T15:21:22.478Z,23.14
2023-03-18T15:23:55.705Z,23.24
2023-03-18T15:26:25.433Z,23.10
2023-03-18T15:29:02.054Z,21.99
2023-03-18T15:31:41.203Z,21.56
2023-03-18T15:34:30.690Z,21.08
2023-03-18T15:37:00.983Z,20.88
2023-03-18T15:39:32.501Z,20.38
2023-03-18T15:42:02.235Z,20.07
2023-03-18T15:44:32.245Z,19.96
2023-03-18T15:47:24.046Z,19.96
2023-03-18T15:49:57.661Z,19.38
2023-03-18T15:52:25.691Z,18.77
2023-03-18T15:54:53.677Z,18.63
2023-03-18T15:57:31.995Z,18.23
2023-03-18T15:59:59.394Z,18.27
2023-03-18T16:02:27.473Z,18.42
2023-03-18T16:05:16.652Z,18.74
2023-03-18T16:07:43.847Z,19.18
2023-03-18T16:10:11.573Z,19.10
2023-03-18T16:12:39.582Z,18.69
2023-03-18T16:15:07.787Z,18.55
2023-03-18T16:17:34.853Z,18.51
2023-03-18T16:20:04.252Z,18.44
2023-03-18T16:22:33.677Z,18.72
2023-03-18T16:25:01.157Z,18.61
2023-03-18T16:27:34.798Z,18.76
2023-03-18T16:30:01.934Z,18.83
2023-03-18T16:32:29.526Z,19.03
2023-03-18T16:34:56.599Z,19.04
2023-03-18T16:37:27.757Z,19.09
2023-03-18T16:39:55.816Z,19.45
2023-03-18T16:42:25.800Z,19.59
2023-03-18T16:44:53.244Z,19.43
2023-03-18T16:47:25.398Z,19.16
2023-03-18T16:49:53.102Z,19.00
2023-03-18T16:52:20.202Z,18.89
2023-03-18T16:54:47.305Z,18.74
2023-03-18T16:57:18.782Z,18.45
2023-03-18T16:59:50.850Z,18.40
2023-03-18T17:02:35.810Z,18.17
2023-03-18T17:05:03.109Z,17.94
2023-03-18T17:07:31.223Z,17.65
2023-03-18T17:09:58.477Z,17.24
2023-03-18T17:12:26.207Z,17.09
2023-03-18T17:14:57.373Z,16.86
2023-03-18T17:17:29.825Z,16.59
2023-03-18T17:19:59.768Z,16.29
2023-03-18T17:22:29.622Z,16.19
2023-03-18T17:24:57.283Z,15.89
2023-03-18T17:27:31.992Z,15.63
2023-03-18T17:29:59.767Z,15.49
2023-03-18T17:32:27.320Z,15.34
2023-03-18T17:34:54.805Z,15.13
2023-03-18T17:37:23.442Z,14.96
2023-03-18T17:39:50.596Z,14.84
2023-03-18T17:42:30.552Z,14.71
2023-03-18T17:45:05.627Z,14.61
2023-03-18T17:47:32.864Z,14.49
2023-03-18T17:50:00.931Z,14.46
2023-03-18T17:52:28.035Z,14.35
2023-03-18T17:54:55.677Z,14.21
2023-03-18T17:57:23.160Z,14.23
2023-03-18T17:59:51.570Z,14.21
2023-03-18T18:02:20.364Z,14.12
2023-03-18T18:04:47.489Z,13.98
2023-03-18T18:07:19.573Z,14.00
2023-03-18T18:09:46.938Z,13.91
2023-03-18T18:12:22.060Z,13.85
2023-03-18T18:14:49.907Z,13.82
2023-03-18T18:17:17.236Z,13.70
2023-03-18T18:19:44.606Z,13.70
2023-03-18T18:22:17.871Z,13.60
2023-03-18T18:24:47.016Z,13.60
2023-03-18T18:27:15.350Z,13.51
2023-03-18T18:29:46.052Z,13.54
2023-03-18T18:32:13.254Z,13.55
2023-03-18T18:34:40.603Z,13.48
2023-03-18T18:37:08.132Z,13.38
2023-03-18T18:39:35.270Z,13.36
2023-03-18T18:42:04.573Z,13.40
2023-03-18T18:44:31.779Z,13.40
2023-03-18T18:46:59.461Z,13.40
2023-03-18T18:49:26.615Z,13.34
2023-03-18T18:51:55.564Z,13.40
2023-03-18T18:54:24.449Z,13.43
2023-03-18T18:56:52.362Z,13.45
2023-03-18T18:59:27.032Z,13.52
2023-03-18T19:01:55.563Z,13.51
2023-03-18T19:04:23.998Z,13.47
2023-03-18T19:06:52.454Z,13.42
2023-03-18T19:09:24.574Z,13.36
2023-03-18T19:11:53.279Z,13.38
2023-03-18T19:14:24.592Z,13.43
2023-03-18T19:16:53.739Z,13.39
2023-03-18T19:19:24.707Z,13.35
2023-03-18T19:21:52.146Z,13.34
2023-03-18T19:24:32.670Z,13.35
2023-03-18T19:27:05.778Z,13.42
2023-03-18T19:29:33.324Z,13.36
2023-03-18T19:32:03.882Z,13.35
2023-03-18T19:34:32.524Z,13.37
2023-03-18T19:37:05.691Z,13.44
2023-03-18T19:39:32.764Z,13.33
2023-03-18T19:42:00.604Z,13.34
2023-03-18T19:44:27.786Z,13.43
2023-03-18T19:46:59.535Z,13.39
2023-03-18T19:49:33.664Z,13.35
2023-03-18T19:52:02.624Z,13.36
2023-03-18T19:54:32.729Z,13.27
2023-03-18T19:57:03.335Z,13.23
2023-03-18T19:59:38.769Z,13.10
2023-03-18T20:02:34.422Z,13.08
2023-03-18T20:05:04.517Z,13.03
2023-03-18T20:07:32.804Z,13.06
2023-03-18T20:10:02.934Z,13.10
2023-03-18T20:12:41.035Z,12.99
2023-03-18T20:15:17.771Z,13.12
2023-03-18T20:17:46.773Z,13.17
2023-03-18T20:20:23.514Z,13.19
2023-03-18T20:23:03.365Z,13.24
2023-03-18T20:25:36.168Z,13.13
2023-03-18T20:28:04.827Z,12.92
2023-03-18T20:30:34.235Z,12.80
2023-03-18T20:33:05.078Z,12.60
2023-03-18T20:35:35.785Z,12.49
2023-03-18T20:38:24.693Z,12.23
2023-03-18T20:40:51.784Z,12.15
2023-03-18T20:43:21.814Z,11.99
2023-03-18T20:45:51.459Z,12.01
2023-03-18T20:48:19.314Z,12.02
2023-03-18T20:50:46.815Z,12.00
2023-03-18T20:53:21.863Z,12.05
2023-03-18T20:55:49.673Z,12.01
2023-03-18T20:58:21.878Z,12.03
2023-03-18T21:00:49.346Z,12.02
2023-03-18T21:03:29.552Z,12.13
2023-03-18T21:06:00.393Z,12.15
2023-03-18T21:08:28.094Z,12.08
2023-03-18T21:10:56.669Z,11.95
2023-03-18T21:13:36.171Z,11.93
2023-03-18T21:16:07.991Z,11.97
2023-03-18T21:18:35.608Z,11.96
2023-03-18T21:21:02.759Z,11.92
2023-03-18T21:23:34.618Z,11.89
2023-03-18T21:26:01.940Z,11.84
2023-03-18T21:28:30.350Z,11.81
2023-03-18T21:30:58.604Z,11.83
2023-03-18T21:33:32.444Z,11.83
2023-03-18T21:36:01.367Z,11.80
2023-03-18T21:38:32.557Z,11.79
2023-03-18T21:41:01.340Z,11.71
2023-03-18T21:43:33.525Z,11.74
2023-03-18T21:46:01.842Z,11.67
2023-03-18T21:48:29.545Z,11.75
2023-03-18T21:50:56.668Z,11.77
2023-03-18T21:53:24.949Z,11.80
2023-03-18T21:55:52.291Z,11.77
2023-03-18T21:58:27.194Z,11.82
2023-03-18T22:00:58.104Z,11.82
2023-03-18T22:03:28.016Z,11.81
2023-03-18T22:05:56.394Z,11.74
2023-03-18T22:08:24.254Z,11.77
2023-03-18T22:10:52.335Z,11.79
2023-03-18T22:13:20.844Z,11.77
2023-03-18T22:15:49.736Z,11.79
2023-03-18T22:18:17.135Z,11.76
2023-03-18T22:20:46.284Z,11.78
2023-03-18T22:23:35.725Z,11.79
2023-03-18T22:26:03.692Z,11.72
2023-03-18T22:28:32.477Z,11.87
2023-03-18T22:31:03.155Z,11.88
2023-03-18T22:33:33.214Z,11.85
2023-03-18T22:36:01.170Z,11.79
2023-03-18T22:38:28.492Z,11.82
2023-03-18T22:40:57.151Z,11.82
2023-03-18T22:43:27.640Z,11.86
2023-03-18T22:45:54.840Z,11.90
2023-03-18T22:48:22.275Z,11.99
2023-03-18T22:50:49.717Z,12.06
2023-03-18T22:53:27.071Z,11.98
2023-03-18T22:55:56.119Z,11.92
2023-03-18T22:58:26.417Z,11.95
2023-03-18T23:00:55.072Z,11.91
2023-03-18T23:03:26.492Z,11.88
2023-03-18T23:05:55.297Z,11.94
2023-03-18T23:08:23.056Z,11.76
2023-03-18T23:10:52.526Z,11.86
2023-03-18T23:13:19.586Z,11.84
2023-03-18T23:15:46.717Z,11.82
2023-03-18T23:18:15.867Z,11.77
2023-03-18T23:20:44.624Z,11.79
2023-03-18T23:23:12.563Z,11.72
2023-03-18T23:25:41.065Z,11.78
2023-03-18T23:28:08.308Z,11.82
2023-03-18T23:30:39.209Z,11.85
2023-03-18T23:33:07.304Z,11.85
2023-03-18T23:35:35.070Z,11.87
2023-03-18T23:38:02.470Z,11.79
2023-03-18T23:40:30.297Z,11.89
2023-03-18T23:42:57.323Z,11.77
2023-03-18T23:45:28.029Z,11.83
2023-03-18T23:47:55.900Z,11.80
2023-03-18T23:50:23.545Z,11.83
2023-03-18T23:52:50.689Z,11.75
2023-03-18T23:55:33.575Z,11.67
2023-03-18T23:58:01.002Z,11.76
